^^
Station Historical Data
Daily Summary for February 3, 2018 Units:  English    Metric   Both
« Previous Day
Next Day »
Daily Weekly Monthly Yearly Custom
  High: Low: Average:
Temperature: TemperatureF °F 55.0 °F 61.4 °F
Dew Point: DewpointF °F 37.7 °F 48.5 °F
Humidity: Humidity% 45% 63%
Wind Speed: WindSpeedMPHmph 0.0mph 0mph
Wind Gust: WindSpeedGustMPHmph - -
Wind- - North
Pressure: PressureIn in 30.20 in -
Precipitation: 0.00 in    
Historical Graphs
 
 
Tabular Data for February 3, 2018
Time Temperature Dew Point Pressure Wind Wind Speed Wind Gust Humidity Rainfall Rate (Hourly) solar Conditions
TemperatureF °F DewpointF °F PressureIn in Calm     Humidity% HourlyPrecipIn in SolarRadiationWatts/m^2 W/m2 Conditions
00:01 59.0 °F 43.8 °F 30.28 in Calm     57% 0.00 in 0.0 W/m2 OVC
00:06 59.0 °F 41.9 °F 30.27 in Calm     53% 0.00 in 0.0 W/m2 BKN
00:11 59.0 °F 41.9 °F 30.27 in Calm     53% 0.00 in 0.0 W/m2 BKN
00:16 59.0 °F 41.9 °F 30.27 in Calm     53% 0.00 in 0.0 W/m2 BKN
00:21 59.0 °F 41.9 °F 30.27 in Calm     53% 0.00 in 0.0 W/m2 BKN
00:26 59.0 °F 41.9 °F 30.27 in Calm     53% 0.00 in 0.0 W/m2 BKN
00:31 59.0 °F 41.9 °F 30.27 in Calm     53% 0.00 in 0.0 W/m2 BKN
00:36 59.0 °F 41.9 °F 30.27 in Calm     53% 0.00 in 0.0 W/m2 BKN
00:41 59.0 °F 41.9 °F 30.27 in Calm     53% 0.00 in 0.0 W/m2 BKN
00:46 59.0 °F 41.9 °F 30.27 in Calm     53% 0.00 in 0.0 W/m2 BKN
00:51 59.0 °F 41.9 °F 30.27 in Calm     53% 0.00 in 0.0 W/m2 BKN
00:56 59.0 °F 41.9 °F 30.27 in Calm     53% 0.00 in 0.0 W/m2 BKN
01:01 59.0 °F 41.9 °F 30.27 in Calm     53% 0.00 in 0.0 W/m2 BKN
01:06 59.0 °F 37.7 °F 30.25 in Calm     45% 0.00 in 0.0 W/m2 OVC
01:11 59.0 °F 37.7 °F 30.25 in Calm     45% 0.00 in 0.0 W/m2 OVC
01:16 59.0 °F 37.7 °F 30.25 in Calm     45% 0.00 in 0.0 W/m2 OVC
01:21 59.0 °F 37.7 °F 30.25 in Calm     45% 0.00 in 0.0 W/m2 OVC
01:26 59.0 °F 37.7 °F 30.25 in Calm     45% 0.00 in 0.0 W/m2 OVC
01:31 59.0 °F 37.7 °F 30.25 in Calm     45% 0.00 in 0.0 W/m2 OVC
01:36 59.0 °F 37.7 °F 30.25 in Calm     45% 0.00 in 0.0 W/m2 OVC
01:41 59.0 °F 37.7 °F 30.25 in Calm     45% 0.00 in 0.0 W/m2 OVC
01:46 59.0 °F 37.7 °F 30.25 in Calm     45% 0.00 in 0.0 W/m2 OVC
01:51 59.0 °F 37.7 °F 30.25 in Calm     45% 0.00 in 0.0 W/m2 OVC
01:56 59.0 °F 37.7 °F 30.25 in Calm     45% 0.00 in 0.0 W/m2 OVC
02:01 59.0 °F 37.7 °F 30.25 in Calm     45% 0.00 in 0.0 W/m2 OVC
02:06 57.9 °F 38.9 °F 30.25 in Calm     49% 0.00 in 0.0 W/m2 CLR
02:11 57.9 °F 38.9 °F 30.25 in Calm     49% 0.00 in 0.0 W/m2 CLR
02:16 57.9 °F 38.9 °F 30.25 in Calm     49% 0.00 in 0.0 W/m2 CLR
02:21 57.9 °F 38.9 °F 30.25 in Calm     49% 0.00 in 0.0 W/m2 CLR
02:26 57.9 °F 38.9 °F 30.25 in Calm     49% 0.00 in 0.0 W/m2 CLR
02:31 57.9 °F 38.9 °F 30.25 in Calm     49% 0.00 in 0.0 W/m2 CLR
02:36 57.9 °F 38.9 °F 30.25 in Calm     49% 0.00 in 0.0 W/m2 CLR
02:41 57.9 °F 38.9 °F 30.25 in Calm     49% 0.00 in 0.0 W/m2 CLR
02:46 57.9 °F 38.9 °F 30.25 in Calm     49% 0.00 in 0.0 W/m2 CLR
02:51 57.9 °F 38.9 °F 30.25 in Calm     49% 0.00 in 0.0 W/m2 CLR
02:56 57.9 °F 38.9 °F 30.25 in Calm     49% 0.00 in 0.0 W/m2 CLR
03:01 57.9 °F 38.9 °F 30.25 in Calm     49% 0.00 in 0.0 W/m2 CLR
03:06 57.0 °F 40.5 °F 30.26 in Calm     54% 0.00 in 0.0 W/m2 CLR
03:11 57.0 °F 40.5 °F 30.26 in Calm     54% 0.00 in 0.0 W/m2 CLR
03:16 57.0 °F 40.5 °F 30.26 in Calm     54% 0.00 in 0.0 W/m2 CLR
03:21 57.0 °F 40.5 °F 30.26 in Calm     54% 0.00 in 0.0 W/m2 CLR
03:26 57.0 °F 40.5 °F 30.26 in Calm     54% 0.00 in 0.0 W/m2 CLR
03:31 57.0 °F 40.5 °F 30.26 in Calm     54% 0.00 in 0.0 W/m2 CLR
03:36 57.0 °F 40.5 °F 30.26 in Calm     54% 0.00 in 0.0 W/m2 CLR
03:41 57.0 °F 40.5 °F 30.26 in Calm     54% 0.00 in 0.0 W/m2 CLR
03:46 57.0 °F 40.5 °F 30.26 in Calm     54% 0.00 in 0.0 W/m2 CLR
03:51 57.0 °F 40.5 °F 30.26 in Calm     54% 0.00 in 0.0 W/m2 CLR
03:56 57.0 °F 40.5 °F 30.26 in Calm     54% 0.00 in 0.0 W/m2 CLR
04:01 57.0 °F 41.9 °F 30.25 in Calm     57% 0.00 in 0.0 W/m2 FEW
04:06 57.0 °F 41.9 °F 30.25 in Calm     57% 0.00 in 0.0 W/m2 FEW
04:11 57.0 °F 41.9 °F 30.25 in Calm     57% 0.00 in 0.0 W/m2 FEW
04:16 57.0 °F 41.9 °F 30.25 in Calm     57% 0.00 in 0.0 W/m2 FEW
04:21 57.0 °F 41.9 °F 30.25 in Calm     57% 0.00 in 0.0 W/m2 FEW
04:26 57.0 °F 41.9 °F 30.25 in Calm     57% 0.00 in 0.0 W/m2 FEW
04:31 57.0 °F 41.9 °F 30.25 in Calm     57% 0.00 in 0.0 W/m2 FEW
04:36 57.0 °F 41.9 °F 30.25 in Calm     57% 0.00 in 0.0 W/m2 FEW
04:41 57.0 °F 41.9 °F 30.25 in Calm     57% 0.00 in 0.0 W/m2 FEW
04:46 57.0 °F 41.9 °F 30.25 in Calm     57% 0.00 in 0.0 W/m2 FEW
04:51 57.0 °F 41.9 °F 30.25 in Calm     57% 0.00 in 0.0 W/m2 FEW
04:56 57.0 °F 41.9 °F 30.25 in Calm     57% 0.00 in 0.0 W/m2 FEW
05:01 55.0 °F 44.7 °F 30.25 in Calm     68% 0.00 in 0.0 W/m2 CLR
05:06 55.0 °F 44.7 °F 30.25 in Calm     68% 0.00 in 0.0 W/m2 CLR
05:11 55.0 °F 44.7 °F 30.25 in Calm     68% 0.00 in 0.0 W/m2 CLR
05:16 55.0 °F 44.7 °F 30.25 in Calm     68% 0.00 in 0.0 W/m2 CLR
05:21 55.0 °F 44.7 °F 30.25 in Calm     68% 0.00 in 0.0 W/m2 CLR
05:26 55.0 °F 44.7 °F 30.25 in Calm     68% 0.00 in 0.0 W/m2 CLR
05:31 55.0 °F 44.7 °F 30.25 in Calm     68% 0.00 in 0.0 W/m2 CLR
05:36 55.0 °F 44.7 °F 30.25 in Calm     68% 0.00 in 0.0 W/m2 CLR
05:41 55.0 °F 44.7 °F 30.25 in Calm     68% 0.00 in 0.0 W/m2 CLR
05:46 55.0 °F 44.7 °F 30.25 in Calm     68% 0.00 in 0.0 W/m2 CLR
05:51 55.0 °F 44.7 °F 30.25 in Calm     68% 0.00 in 0.0 W/m2 CLR
05:56 55.0 °F 44.7 °F 30.25 in Calm     68% 0.00 in 0.0 W/m2 CLR
06:01 55.0 °F 45.8 °F 30.26 in Calm     71% 0.00 in 0.0 W/m2 BKN
06:06 55.0 °F 45.8 °F 30.26 in Calm     71% 0.00 in 0.0 W/m2 BKN
06:11 55.0 °F 45.8 °F 30.26 in Calm     71% 0.00 in 0.0 W/m2 BKN
06:16 55.0 °F 45.8 °F 30.26 in Calm     71% 0.00 in 0.0 W/m2 BKN
06:21 55.0 °F 45.8 °F 30.26 in Calm     71% 0.00 in 0.0 W/m2 BKN
06:26 55.0 °F 45.8 °F 30.26 in Calm     71% 0.00 in 0.0 W/m2 BKN
06:31 55.0 °F 45.8 °F 30.26 in Calm     71% 0.00 in 0.0 W/m2 BKN
06:36 55.0 °F 45.8 °F 30.26 in Calm     71% 0.00 in 0.0 W/m2 BKN
06:41 55.0 °F 45.8 °F 30.26 in Calm     71% 0.00 in 0.0 W/m2 BKN
06:46 55.0 °F 45.8 °F 30.26 in Calm     71% 0.00 in 0.0 W/m2 BKN
06:51 55.0 °F 45.8 °F 30.26 in Calm     71% 0.00 in 0.0 W/m2 BKN
06:56 55.0 °F 45.8 °F 30.26 in Calm     71% 0.00 in 0.0 W/m2 BKN
07:01 55.0 °F 46.9 °F 30.27 in Calm     74% 0.00 in 0.0 W/m2 OVC
07:06 55.0 °F 46.9 °F 30.27 in Calm     74% 0.00 in 0.0 W/m2 OVC
07:11 55.0 °F 46.9 °F 30.27 in Calm     74% 0.00 in 0.0 W/m2 OVC
07:16 55.0 °F 46.9 °F 30.27 in Calm     74% 0.00 in 0.0 W/m2 OVC
07:21 55.0 °F 46.9 °F 30.27 in Calm     74% 0.00 in 0.0 W/m2 OVC
07:26 55.0 °F 46.9 °F 30.27 in Calm     74% 0.00 in 0.0 W/m2 OVC
07:31 55.0 °F 46.9 °F 30.27 in Calm     74% 0.00 in 0.0 W/m2 OVC
07:36 55.0 °F 46.9 °F 30.27 in Calm     74% 0.00 in 0.0 W/m2 OVC
07:41 55.0 °F 46.9 °F 30.27 in Calm     74% 0.00 in 0.0 W/m2 OVC
07:46 55.0 °F 46.9 °F 30.27 in Calm     74% 0.00 in 0.0 W/m2 OVC
07:51 55.0 °F 46.9 °F 30.27 in Calm     74% 0.00 in 0.0 W/m2 OVC
07:56 55.0 °F 46.9 °F 30.27 in Calm     74% 0.00 in 0.0 W/m2 OVC
08:01 55.9 °F 47.8 °F 30.29 in Calm     74% 0.00 in 0.0 W/m2 OVC
08:06 55.9 °F 47.8 °F 30.29 in Calm     74% 0.00 in 0.0 W/m2 OVC
08:11 55.9 °F 47.8 °F 30.29 in Calm     74% 0.00 in 0.0 W/m2 OVC
08:16 55.9 °F 47.8 °F 30.29 in Calm     74% 0.00 in 0.0 W/m2 OVC
08:21 55.9 °F 47.8 °F 30.29 in Calm     74% 0.00 in 0.0 W/m2 OVC
08:26 55.9 °F 47.8 °F 30.29 in Calm     74% 0.00 in 0.0 W/m2 OVC
08:31 55.9 °F 47.8 °F 30.29 in Calm     74% 0.00 in 0.0 W/m2 OVC
08:36 55.9 °F 47.8 °F 30.29 in Calm     74% 0.00 in 0.0 W/m2 OVC
08:41 55.9 °F 47.8 °F 30.29 in Calm     74% 0.00 in 0.0 W/m2 OVC
08:46 55.9 °F 47.8 °F 30.29 in Calm     74% 0.00 in 0.0 W/m2 OVC
08:51 55.9 °F 47.8 °F 30.29 in Calm     74% 0.00 in 0.0 W/m2 OVC
08:56 55.9 °F 47.8 °F 30.29 in Calm     74% 0.00 in 0.0 W/m2 OVC
09:01 59.0 °F 48.8 °F 30.28 in Calm     69% 0.00 in 0.0 W/m2 BKN
09:06 59.0 °F 48.8 °F 30.28 in Calm     69% 0.00 in 0.0 W/m2 BKN
09:11 59.0 °F 48.8 °F 30.28 in Calm     69% 0.00 in 0.0 W/m2 BKN
09:16 59.0 °F 48.8 °F 30.28 in Calm     69% 0.00 in 0.0 W/m2 BKN
09:21 59.0 °F 48.8 °F 30.28 in Calm     69% 0.00 in 0.0 W/m2 BKN
09:26 59.0 °F 48.8 °F 30.28 in Calm     69% 0.00 in 0.0 W/m2 BKN
09:31 59.0 °F 48.8 °F 30.28 in Calm     69% 0.00 in 0.0 W/m2 BKN
09:36 59.0 °F 48.8 °F 30.28 in Calm     69% 0.00 in 0.0 W/m2 BKN
09:41 59.0 °F 48.8 °F 30.28 in Calm     69% 0.00 in 0.0 W/m2 BKN
09:46 59.0 °F 48.8 °F 30.28 in Calm     69% 0.00 in 0.0 W/m2 BKN
09:51 59.0 °F 48.8 °F 30.28 in Calm     69% 0.00 in 0.0 W/m2 BKN
09:56 59.0 °F 48.8 °F 30.28 in Calm     69% 0.00 in 0.0 W/m2 BKN
10:01 64.0 °F 49.9 °F 30.30 in Calm     60% 0.00 in 0.0 W/m2 OVC
10:06 64.0 °F 49.9 °F 30.30 in Calm     60% 0.00 in 0.0 W/m2 OVC
10:11 64.0 °F 49.9 °F 30.30 in Calm     60% 0.00 in 0.0 W/m2 OVC
10:16 64.0 °F 49.9 °F 30.30 in Calm     60% 0.00 in 0.0 W/m2 OVC
10:21 64.0 °F 49.9 °F 30.30 in Calm     60% 0.00 in 0.0 W/m2 OVC
10:26 64.0 °F 49.9 °F 30.30 in Calm     60% 0.00 in 0.0 W/m2 OVC
10:31 64.0 °F 49.9 °F 30.30 in Calm     60% 0.00 in 0.0 W/m2 OVC
10:36 64.0 °F 49.9 °F 30.30 in Calm     60% 0.00 in 0.0 W/m2 OVC
10:41 64.0 °F 49.9 °F 30.30 in Calm     60% 0.00 in 0.0 W/m2 OVC
10:46 64.0 °F 49.9 °F 30.30 in Calm     60% 0.00 in 0.0 W/m2 OVC
10:51 64.0 °F 49.9 °F 30.30 in Calm     60% 0.00 in 0.0 W/m2 OVC
10:56 64.0 °F 49.9 °F 30.30 in Calm     60% 0.00 in 0.0 W/m2 OVC
11:01 66.0 °F 51.7 °F 30.30 in Calm     60% 0.00 in 0.0 W/m2 OVC
11:06 66.0 °F 51.7 °F 30.30 in Calm     60% 0.00 in 0.0 W/m2 OVC
11:11 66.0 °F 51.7 °F 30.30 in Calm     60% 0.00 in 0.0 W/m2 OVC
11:16 66.0 °F 51.7 °F 30.30 in Calm     60% 0.00 in 0.0 W/m2 OVC
11:21 66.0 °F 51.7 °F 30.30 in Calm     60% 0.00 in 0.0 W/m2 OVC
11:26 66.0 °F 51.7 °F 30.30 in Calm     60% 0.00 in 0.0 W/m2 OVC
11:31 66.0 °F 51.7 °F 30.30 in Calm     60% 0.00 in 0.0 W/m2 OVC
11:36 66.0 °F 51.7 °F 30.30 in Calm     60% 0.00 in 0.0 W/m2 OVC
11:41 66.0 °F 51.7 °F 30.30 in Calm     60% 0.00 in 0.0 W/m2 OVC
11:46 66.0 °F 51.7 °F 30.30 in Calm     60% 0.00 in 0.0 W/m2 OVC
11:51 66.0 °F 51.7 °F 30.30 in Calm     60% 0.00 in 0.0 W/m2 OVC
11:56 66.0 °F 51.7 °F 30.30 in Calm     60% 0.00 in 0.0 W/m2 OVC
12:01 69.1 °F 51.7 °F 30.28 in Calm     54% 0.00 in 0.0 W/m2 OVC
12:06 69.1 °F 51.7 °F 30.28 in Calm     54% 0.00 in 0.0 W/m2 OVC
12:11 69.1 °F 51.7 °F 30.28 in Calm     54% 0.00 in 0.0 W/m2 OVC
12:16 69.1 °F 51.7 °F 30.28 in Calm     54% 0.00 in 0.0 W/m2 OVC
12:21 69.1 °F 51.7 °F 30.28 in Calm     54% 0.00 in 0.0 W/m2 OVC
12:26 69.1 °F 51.7 °F 30.28 in Calm     54% 0.00 in 0.0 W/m2 OVC
12:31 69.1 °F 51.7 °F 30.28 in Calm     54% 0.00 in 0.0 W/m2 OVC
12:36 69.1 °F 51.7 °F 30.28 in Calm     54% 0.00 in 0.0 W/m2 OVC
12:41 69.1 °F 51.7 °F 30.28 in Calm     54% 0.00 in 0.0 W/m2 OVC
12:46 69.1 °F 51.7 °F 30.28 in Calm     54% 0.00 in 0.0 W/m2 OVC
12:51 69.1 °F 51.7 °F 30.28 in Calm     54% 0.00 in 0.0 W/m2 OVC
12:56 69.1 °F 51.7 °F 30.28 in Calm     54% 0.00 in 0.0 W/m2 OVC
13:01 68.0 °F 51.7 °F 30.26 in Calm     56% 0.00 in 0.0 W/m2 OVC
13:06 68.0 °F 51.7 °F 30.26 in Calm     56% 0.00 in 0.0 W/m2 OVC
13:11 68.0 °F 51.7 °F 30.26 in Calm     56% 0.00 in 0.0 W/m2 OVC
13:16 68.0 °F 51.7 °F 30.26 in Calm     56% 0.00 in 0.0 W/m2 OVC
13:21 68.0 °F 51.7 °F 30.26 in Calm     56% 0.00 in 0.0 W/m2 OVC
13:26 68.0 °F 51.7 °F 30.26 in Calm     56% 0.00 in 0.0 W/m2 OVC
13:31 68.0 °F 51.7 °F 30.26 in Calm     56% 0.00 in 0.0 W/m2 OVC
13:36 68.0 °F 51.7 °F 30.26 in Calm     56% 0.00 in 0.0 W/m2 OVC
13:41 68.0 °F 51.7 °F 30.26 in Calm     56% 0.00 in 0.0 W/m2 OVC
13:46 68.0 °F 51.7 °F 30.26 in Calm     56% 0.00 in 0.0 W/m2 OVC
13:51 68.0 °F 51.7 °F 30.26 in Calm     56% 0.00 in 0.0 W/m2 OVC
13:56 68.0 °F 51.7 °F 30.26 in Calm     56% 0.00 in 0.0 W/m2 OVC
14:01 68.0 °F 51.7 °F 30.24 in Calm     56% 0.00 in 0.0 W/m2 OVC
14:06 68.0 °F 51.7 °F 30.24 in Calm     56% 0.00 in 0.0 W/m2 OVC
14:11 68.0 °F 51.7 °F 30.24 in Calm     56% 0.00 in 0.0 W/m2 OVC
14:16 68.0 °F 51.7 °F 30.24 in Calm     56% 0.00 in 0.0 W/m2 OVC
14:21 68.0 °F 51.7 °F 30.24 in Calm     56% 0.00 in 0.0 W/m2 OVC
14:26 68.0 °F 51.7 °F 30.24 in Calm     56% 0.00 in 0.0 W/m2 OVC
14:31 68.0 °F 51.7 °F 30.24 in Calm     56% 0.00 in 0.0 W/m2 OVC
14:36 68.0 °F 51.7 °F 30.24 in Calm     56% 0.00 in 0.0 W/m2 OVC
14:41 68.0 °F 51.7 °F 30.24 in Calm     56% 0.00 in 0.0 W/m2 OVC
14:46 68.0 °F 51.7 °F 30.24 in Calm     56% 0.00 in 0.0 W/m2 OVC
14:51 68.0 °F 51.7 °F 30.24 in Calm     56% 0.00 in 0.0 W/m2 OVC
15:01 66.0 °F 51.7 °F 30.22 in Calm     60% 0.00 in 0.0 W/m2 OVC
15:06 66.0 °F 51.7 °F 30.22 in Calm     60% 0.00 in 0.0 W/m2 OVC
15:11 66.0 °F 51.7 °F 30.22 in Calm     60% 0.00 in 0.0 W/m2 OVC
15:16 66.0 °F 51.7 °F 30.22 in Calm     60% 0.00 in 0.0 W/m2 OVC
15:21 66.0 °F 51.7 °F 30.22 in Calm     60% 0.00 in 0.0 W/m2 OVC
15:26 66.0 °F 51.7 °F 30.22 in Calm     60% 0.00 in 0.0 W/m2 OVC
15:31 66.0 °F 51.7 °F 30.22 in Calm     60% 0.00 in 0.0 W/m2 OVC
15:36 66.0 °F 51.7 °F 30.22 in Calm     60% 0.00 in 0.0 W/m2 OVC
15:41 66.0 °F 51.7 °F 30.22 in Calm     60% 0.00 in 0.0 W/m2 OVC
15:46 66.0 °F 51.7 °F 30.22 in Calm     60% 0.00 in 0.0 W/m2 OVC
15:51 66.0 °F 51.7 °F 30.22 in Calm     60% 0.00 in 0.0 W/m2 OVC
15:56 66.0 °F 51.7 °F 30.22 in Calm     60% 0.00 in 0.0 W/m2 OVC
16:01 66.0 °F 51.7 °F 30.21 in Calm     60% 0.00 in 0.0 W/m2 OVC
16:06 66.0 °F 51.7 °F 30.21 in Calm     60% 0.00 in 0.0 W/m2 OVC
16:11 66.0 °F 51.7 °F 30.21 in Calm     60% 0.00 in 0.0 W/m2 OVC
16:16 66.0 °F 51.7 °F 30.21 in Calm     60% 0.00 in 0.0 W/m2 OVC
16:21 66.0 °F 51.7 °F 30.21 in Calm     60% 0.00 in 0.0 W/m2 OVC
16:26 66.0 °F 51.7 °F 30.21 in Calm     60% 0.00 in 0.0 W/m2 OVC
16:31 66.0 °F 51.7 °F 30.21 in Calm     60% 0.00 in 0.0 W/m2 OVC
16:36 66.0 °F 51.7 °F 30.21 in Calm     60% 0.00 in 0.0 W/m2 OVC
16:41 66.0 °F 51.7 °F 30.21 in Calm     60% 0.00 in 0.0 W/m2 OVC
16:46 66.0 °F 51.7 °F 30.21 in Calm     60% 0.00 in 0.0 W/m2 OVC
16:51 66.0 °F 51.7 °F 30.21 in Calm     60% 0.00 in 0.0 W/m2 OVC
16:56 66.0 °F 51.7 °F 30.21 in Calm     60% 0.00 in 0.0 W/m2 OVC
17:01 64.9 °F 52.9 °F 30.22 in Calm     65% 0.00 in 0.0 W/m2 OVC
17:06 64.9 °F 52.9 °F 30.22 in Calm     65% 0.00 in 0.0 W/m2 OVC
17:11 64.9 °F 52.9 °F 30.22 in Calm     65% 0.00 in 0.0 W/m2 OVC
17:16 64.9 °F 52.9 °F 30.22 in Calm     65% 0.00 in 0.0 W/m2 OVC
17:21 64.9 °F 52.9 °F 30.22 in Calm     65% 0.00 in 0.0 W/m2 OVC
17:26 64.9 °F 52.9 °F 30.22 in Calm     65% 0.00 in 0.0 W/m2 OVC
17:31 64.9 °F 52.9 °F 30.22 in Calm     65% 0.00 in 0.0 W/m2 OVC
17:36 64.9 °F 52.9 °F 30.22 in Calm     65% 0.00 in 0.0 W/m2 OVC
17:41 64.9 °F 52.9 °F 30.22 in Calm     65% 0.00 in 0.0 W/m2 OVC
17:46 64.9 °F 52.9 °F 30.22 in Calm     65% 0.00 in 0.0 W/m2 OVC
17:51 64.9 °F 52.9 °F 30.22 in Calm     65% 0.00 in 0.0 W/m2 OVC
17:56 64.9 °F 52.9 °F 30.22 in Calm     65% 0.00 in 0.0 W/m2 OVC
18:01 64.0 °F 52.9 °F 30.22 in Calm     67% 0.00 in 0.0 W/m2 OVC
18:06 64.0 °F 52.9 °F 30.22 in Calm     67% 0.00 in 0.0 W/m2 OVC
18:11 64.0 °F 52.9 °F 30.22 in Calm     67% 0.00 in 0.0 W/m2 OVC
18:16 64.0 °F 52.9 °F 30.22 in Calm     67% 0.00 in 0.0 W/m2 OVC
18:21 64.0 °F 52.9 °F 30.22 in Calm     67% 0.00 in 0.0 W/m2 OVC
18:26 64.0 °F 52.9 °F 30.22 in Calm     67% 0.00 in 0.0 W/m2 OVC
18:31 64.0 °F 52.9 °F 30.22 in Calm     67% 0.00 in 0.0 W/m2 OVC
18:36 64.0 °F 52.9 °F 30.22 in Calm     67% 0.00 in 0.0 W/m2 OVC
18:41 64.0 °F 52.9 °F 30.22 in Calm     67% 0.00 in 0.0 W/m2 OVC
18:46 64.0 °F 52.9 °F 30.22 in Calm     67% 0.00 in 0.0 W/m2 OVC
18:51 64.0 °F 52.9 °F 30.22 in Calm     67% 0.00 in 0.0 W/m2 OVC
18:56 64.0 °F 52.9 °F 30.22 in Calm     67% 0.00 in 0.0 W/m2 OVC
19:01 64.0 °F 52.9 °F 30.23 in Calm     67% 0.00 in 0.0 W/m2 OVC
19:06 64.0 °F 52.9 °F 30.23 in Calm     67% 0.00 in 0.0 W/m2 OVC
19:11 64.0 °F 52.9 °F 30.23 in Calm     67% 0.00 in 0.0 W/m2 OVC
19:16 64.0 °F 52.9 °F 30.23 in Calm     67% 0.00 in 0.0 W/m2 OVC
19:21 64.0 °F 52.9 °F 30.23 in Calm     67% 0.00 in 0.0 W/m2 OVC
19:26 64.0 °F 52.9 °F 30.23 in Calm     67% 0.00 in 0.0 W/m2 OVC
19:31 64.0 °F 52.9 °F 30.23 in Calm     67% 0.00 in 0.0 W/m2 OVC
19:36 64.0 °F 52.9 °F 30.23 in Calm     67% 0.00 in 0.0 W/m2 OVC
19:41 64.0 °F 52.9 °F 30.23 in Calm     67% 0.00 in 0.0 W/m2 OVC
19:46 64.0 °F 52.9 °F 30.23 in Calm     67% 0.00 in 0.0 W/m2 OVC
19:51 64.0 °F 52.9 °F 30.23 in Calm     67% 0.00 in 0.0 W/m2 OVC
19:56 64.0 °F 52.9 °F 30.23 in Calm     67% 0.00 in 0.0 W/m2 OVC
20:06 63.0 °F 53.0 °F 30.22 in Calm     70% 0.00 in 0.0 W/m2 OVC
20:11 63.0 °F 53.0 °F 30.22 in Calm     70% 0.00 in 0.0 W/m2 OVC
20:16 63.0 °F 53.0 °F 30.22 in Calm     70% 0.00 in 0.0 W/m2 OVC
20:21 63.0 °F 53.0 °F 30.22 in Calm     70% 0.00 in 0.0 W/m2 OVC
20:26 63.0 °F 53.0 °F 30.22 in Calm     70% 0.00 in 0.0 W/m2 OVC
20:31 63.0 °F 53.0 °F 30.22 in Calm     70% 0.00 in 0.0 W/m2 OVC
20:36 63.0 °F 53.0 °F 30.22 in Calm     70% 0.00 in 0.0 W/m2 OVC
20:41 63.0 °F 53.0 °F 30.22 in Calm     70% 0.00 in 0.0 W/m2 OVC
20:46 63.0 °F 53.0 °F 30.22 in Calm     70% 0.00 in 0.0 W/m2 OVC
20:51 63.0 °F 53.0 °F 30.22 in Calm     70% 0.00 in 0.0 W/m2 OVC
20:56 63.0 °F 53.0 °F 30.22 in Calm     70% 0.00 in 0.0 W/m2 OVC
21:01 63.0 °F 53.8 °F 30.22 in Calm     72% 0.00 in 0.0 W/m2 OVC
21:06 63.0 °F 53.8 °F 30.22 in Calm     72% 0.00 in 0.0 W/m2 OVC
21:11 63.0 °F 53.8 °F 30.22 in Calm     72% 0.00 in 0.0 W/m2 OVC
21:16 63.0 °F 53.8 °F 30.22 in Calm     72% 0.00 in 0.0 W/m2 OVC
21:21 63.0 °F 53.8 °F 30.22 in Calm     72% 0.00 in 0.0 W/m2 OVC
21:26 63.0 °F 53.8 °F 30.22 in Calm     72% 0.00 in 0.0 W/m2 OVC
21:31 63.0 °F 53.8 °F 30.22 in Calm     72% 0.00 in 0.0 W/m2 OVC
21:36 63.0 °F 53.8 °F 30.22 in Calm     72% 0.00 in 0.0 W/m2 OVC
21:41 63.0 °F 53.8 °F 30.22 in Calm     72% 0.00 in 0.0 W/m2 OVC
21:46 63.0 °F 53.8 °F 30.22 in Calm     72% 0.00 in 0.0 W/m2 OVC
21:51 63.0 °F 53.8 °F 30.22 in Calm     72% 0.00 in 0.0 W/m2 OVC
21:56 63.0 °F 53.8 °F 30.22 in Calm     72% 0.00 in 0.0 W/m2 OVC
22:01 62.1 °F 53.7 °F 30.22 in Calm     74% 0.00 in 0.0 W/m2 BKN
22:06 62.1 °F 53.7 °F 30.22 in Calm     74% 0.00 in 0.0 W/m2 BKN
22:11 62.1 °F 53.7 °F 30.22 in Calm     74% 0.00 in 0.0 W/m2 BKN
22:16 62.1 °F 53.7 °F 30.22 in Calm     74% 0.00 in 0.0 W/m2 BKN
22:21 62.1 °F 53.7 °F 30.22 in Calm     74% 0.00 in 0.0 W/m2 BKN
22:26 62.1 °F 53.7 °F 30.22 in Calm     74% 0.00 in 0.0 W/m2 BKN
22:31 62.1 °F 53.7 °F 30.22 in Calm     74% 0.00 in 0.0 W/m2 BKN
22:36 62.1 °F 53.7 °F 30.22 in Calm     74% 0.00 in 0.0 W/m2 BKN
22:41 62.1 °F 53.7 °F 30.22 in Calm     74% 0.00 in 0.0 W/m2 BKN
22:46 62.1 °F 53.7 °F 30.22 in Calm     74% 0.00 in 0.0 W/m2 BKN
22:51 62.1 °F 53.7 °F 30.22 in Calm     74% 0.00 in 0.0 W/m2 BKN
22:56 62.1 °F 53.7 °F 30.22 in Calm     74% 0.00 in 0.0 W/m2 BKN
23:01 61.0 °F 54.8 °F 30.20 in Calm     80% 0.00 in 0.0 W/m2 CLR
23:06 61.0 °F 54.8 °F 30.20 in Calm     80% 0.00 in 0.0 W/m2 CLR
23:11 61.0 °F 54.8 °F 30.20 in Calm     80% 0.00 in 0.0 W/m2 CLR
23:16 61.0 °F 54.8 °F 30.20 in Calm     80% 0.00 in 0.0 W/m2 CLR
23:21 61.0 °F 54.8 °F 30.20 in Calm     80% 0.00 in 0.0 W/m2 CLR
23:26 61.0 °F 54.8 °F 30.20 in Calm     80% 0.00 in 0.0 W/m2 CLR
23:27 61.0 °F 54.8 °F 30.20 in Calm     80% 0.00 in 0.0 W/m2 CLR
23:32 61.0 °F 54.8 °F 30.20 in Calm     80% 0.00 in 0.0 W/m2 CLR
23:37 61.0 °F 54.8 °F 30.20 in Calm     80% 0.00 in 0.0 W/m2 CLR
23:42 61.0 °F 54.8 °F 30.20 in Calm     80% 0.00 in 0.0 W/m2 CLR
23:47 61.0 °F 54.8 °F 30.20 in Calm     80% 0.00 in 0.0 W/m2 CLR
23:52 61.0 °F 54.8 °F 30.20 in Calm     80% 0.00 in 0.0 W/m2 CLR
23:57 61.0 °F 54.8 °F 30.20 in Calm     80% 0.00 in 0.0 W/m2 CLR
Lake Mary, FL, USA
Compliments of Weather Underground - 1.75 mb